Time;durP1;ratioP1;P1;durP2;ratioP2;P2;SDS_P1;SDS_P2;PMS_P1;PMS_P2;Temp;Humidity;BMP_temperature;BMP_pressure;BME280_temperature;BME280_humidity;BME280_pressure;Samples;Min_cycle;Max_cycle;Signal;HPM_P1;HPM_P2
2022/07/28 00:00:20;;;;;;;5.70;2.08;;;;;;;;;;5076761;28;20041;-75
2022/07/28 00:02:46;;;;;;;6.68;2.00;;;;;;;;;;5077693;28;20029;-74
2022/07/28 00:05:12;;;;;;;4.68;1.80;;;;;;;;;;5074212;28;20036;-74
2022/07/28 00:07:38;;;;;;;6.40;2.00;;;;;;;;;;5071481;28;20080;-75
2022/07/28 00:10:04;;;;;;;10.70;2.13;;;;;;;;;;5074941;28;20040;-75
2022/07/28 00:12:30;;;;;;;6.43;1.80;;;;;;;;;;5075612;28;20048;-76
2022/07/28 00:14:56;;;;;;;5.40;1.85;;;;;;;;;;5075140;28;20124;-75
2022/07/28 00:17:22;;;;;;;4.85;1.95;;;;;;;;;;5072999;28;20123;-76
2022/07/28 00:19:49;;;;;;;6.88;2.20;;;;;;;;;;5074468;28;20051;-74
2022/07/28 00:22:15;;;;;;;5.95;1.90;;;;;;;;;;5050098;28;20064;-74
2022/07/28 00:24:41;;;;;;;7.03;2.08;;;;;;;;;;5075443;28;20049;-74
2022/07/28 00:27:08;;;;;;;5.80;2.08;;;;;;;;;;5075332;28;20086;-75
2022/07/28 00:29:34;;;;;;;5.55;1.77;;;;;;;;;;5075951;28;20055;-74
2022/07/28 00:32:00;;;;;;;9.00;2.22;;;;;;;;;;5074106;28;20041;-73
2022/07/28 00:34:26;;;;;;;6.60;2.10;;;;;;;;;;5070736;28;20129;-73
2022/07/28 00:36:52;;;;;;;7.53;2.10;;;;;;;;;;5068907;28;20045;-74
2022/07/28 00:39:18;;;;;;;6.90;2.00;;;;;;;;;;5066563;28;20044;-75
2022/07/28 00:41:44;;;;;;;8.35;2.10;;;;;;;;;;5065059;28;20044;-75
2022/07/28 00:44:10;;;;;;;4.18;1.90;;;;;;;;;;5064803;28;20041;-75
2022/07/28 00:46:36;;;;;;;6.85;2.17;;;;;;;;;;5066535;28;22732;-75
2022/07/28 00:49:02;;;;;;;7.45;2.00;;;;;;;;;;5066255;28;20056;-75
2022/07/28 00:51:28;;;;;;;5.45;1.88;;;;;;;;;;5064704;28;20095;-74
2022/07/28 00:53:55;;;;;;;6.95;2.03;;;;;;;;;;5066310;28;20050;-76
2022/07/28 00:56:21;;;;;;;7.07;2.88;;;;;;;;;;5065667;28;20098;-75
2022/07/28 00:58:47;;;;;;;7.93;2.17;;;;;;;;;;5065451;28;20072;-74
2022/07/28 01:01:16;;;;;;;5.38;2.08;;;;;;;;;;5066483;28;20549;-74
2022/07/28 01:03:44;;;;;;;4.90;2.17;;;;;;;;;;5064841;28;20079;-74
2022/07/28 01:06:13;;;;;;;5.63;2.08;;;;;;;;;;5064665;28;20075;-73
2022/07/28 01:09:02;;;;;;;5.75;2.10;;;;;;;;;;5065380;28;20045;-75
2022/07/28 01:11:34;;;;;;;6.53;2.45;;;;;;;;;;5070400;28;20087;-74
2022/07/28 01:14:10;;;;;;;8.77;2.30;;;;;;;;;;5073829;28;20402;-74
2022/07/28 01:16:40;;;;;;;4.72;2.10;;;;;;;;;;5072235;28;20494;-75
2022/07/28 01:19:25;;;;;;;9.80;2.50;;;;;;;;;;5074417;28;20129;-74
2022/07/28 01:21:52;;;;;;;5.47;1.90;;;;;;;;;;5070463;28;20040;-74
2022/07/28 01:24:21;;;;;;;6.30;2.05;;;;;;;;;;5073507;28;20090;-74
2022/07/28 01:26:55;;;;;;;7.15;2.22;;;;;;;;;;5073950;28;20075;-76
2022/07/28 01:29:31;;;;;;;6.28;2.00;;;;;;;;;;5073988;28;20486;-75
2022/07/28 01:32:10;;;;;;;7.03;2.20;;;;;;;;;;5074833;28;20051;-75
2022/07/28 01:34:48;;;;;;;5.95;2.38;;;;;;;;;;5071594;28;20083;-74
2022/07/28 01:37:18;;;;;;;6.35;2.13;;;;;;;;;;5069051;28;20040;-75
2022/07/28 01:39:44;;;;;;;5.85;2.30;;;;;;;;;;5068107;28;20044;-74
2022/07/28 01:42:12;;;;;;;6.88;2.28;;;;;;;;;;5074538;28;20043;-75
2022/07/28 01:44:41;;;;;;;7.80;2.00;;;;;;;;;;5074340;28;20044;-74
2022/07/28 01:47:08;;;;;;;5.78;2.10;;;;;;;;;;5073515;28;20063;-75
2022/07/28 01:49:35;;;;;;;6.57;2.28;;;;;;;;;;5069983;28;20052;-74
2022/07/28 01:52:02;;;;;;;5.40;2.30;;;;;;;;;;5069300;28;20076;-75
2022/07/28 01:54:29;;;;;;;6.07;2.25;;;;;;;;;;5073862;28;20119;-74
2022/07/28 01:56:55;;;;;;;4.97;2.10;;;;;;;;;;5072465;28;20135;-75
2022/07/28 01:59:23;;;;;;;7.85;1.90;;;;;;;;;;5074679;28;20510;-75
2022/07/28 02:01:49;;;;;;;6.30;2.20;;;;;;;;;;5072242;28;20456;-74
2022/07/28 02:04:19;;;;;;;6.28;2.10;;;;;;;;;;5072940;28;20048;-75
2022/07/28 02:06:46;;;;;;;7.43;2.25;;;;;;;;;;5072544;28;20135;-75
2022/07/28 02:09:13;;;;;;;7.15;2.22;;;;;;;;;;5068005;28;20549;-74
2022/07/28 02:11:39;;;;;;;5.60;2.42;;;;;;;;;;5072904;28;20402;-77
2022/07/28 02:14:10;;;;;;;6.40;2.42;;;;;;;;;;5074444;28;20076;-75
2022/07/28 02:16:39;;;;;;;7.25;2.42;;;;;;;;;;5070878;28;20136;-74
2022/07/28 02:19:05;;;;;;;5.05;2.00;;;;;;;;;;5071401;28;20477;-74
2022/07/28 02:21:31;;;;;;;5.32;2.30;;;;;;;;;;5073211;28;20051;-73
2022/07/28 02:23:59;;;;;;;6.60;2.20;;;;;;;;;;5073552;28;20045;-75
2022/07/28 02:26:31;;;;;;;5.45;2.10;;;;;;;;;;5071783;28;20119;-74
2022/07/28 02:28:59;;;;;;;7.78;2.53;;;;;;;;;;5073613;28;20037;-74
2022/07/28 02:31:27;;;;;;;4.85;2.08;;;;;;;;;;5072690;28;20120;-75
2022/07/28 02:33:58;;;;;;;6.80;2.00;;;;;;;;;;5069465;28;20131;-74
2022/07/28 02:36:46;;;;;;;5.25;2.15;;;;;;;;;;5068732;28;20398;-74
2022/07/28 02:39:16;;;;;;;9.05;2.33;;;;;;;;;;5070835;28;20563;-76
2022/07/28 02:41:42;;;;;;;5.63;2.10;;;;;;;;;;5071058;28;20163;-75
2022/07/28 02:44:13;;;;;;;8.50;2.60;;;;;;;;;;5070178;28;20044;-73
2022/07/28 02:46:42;;;;;;;6.85;2.33;;;;;;;;;;5070337;28;20497;-74
2022/07/28 02:49:24;;;;;;;6.20;2.40;;;;;;;;;;5070778;28;20076;-74
2022/07/28 02:51:52;;;;;;;7.45;2.65;;;;;;;;;;5061140;28;20086;-74
2022/07/28 02:54:19;;;;;;;6.05;2.33;;;;;;;;;;5068716;28;20041;-74
2022/07/28 02:56:49;;;;;;;6.35;2.30;;;;;;;;;;5071622;28;20127;-75
2022/07/28 02:59:16;;;;;;;9.83;2.50;;;;;;;;;;5071892;28;20131;-75
2022/07/28 03:01:42;;;;;;;7.55;2.40;;;;;;;;;;5071146;28;20823;-73
2022/07/28 03:04:10;;;;;;;5.93;1.95;;;;;;;;;;5071445;28;20541;-75
2022/07/28 03:06:36;;;;;;;6.50;2.22;;;;;;;;;;5070280;28;20536;-76
2022/07/28 03:09:02;;;;;;;7.38;2.60;;;;;;;;;;5073819;28;20055;-73
2022/07/28 03:11:28;;;;;;;4.80;2.15;;;;;;;;;;5071386;28;20045;-74
2022/07/28 03:13:54;;;;;;;6.57;2.42;;;;;;;;;;5068421;28;20121;-73
2022/07/28 03:16:20;;;;;;;6.63;2.60;;;;;;;;;;5070258;28;20507;-74
2022/07/28 03:18:46;;;;;;;5.40;2.13;;;;;;;;;;5072523;28;20072;-74
2022/07/28 03:21:12;;;;;;;4.22;1.90;;;;;;;;;;5072703;28;20127;-74
2022/07/28 03:23:42;;;;;;;4.80;2.10;;;;;;;;;;5072756;28;20045;-74
2022/07/28 03:26:25;;;;;;;7.13;2.47;;;;;;;;;;5070101;28;20553;-74
2022/07/28 03:28:52;;;;;;;5.70;2.45;;;;;;;;;;5059781;28;20085;-74
2022/07/28 03:31:19;;;;;;;5.28;2.13;;;;;;;;;;5070734;28;20040;-74
2022/07/28 03:33:46;;;;;;;6.95;2.35;;;;;;;;;;5071633;28;20052;-74
2022/07/28 03:36:15;;;;;;;5.88;2.50;;;;;;;;;;5071042;28;20094;-75
2022/07/28 03:38:45;;;;;;;7.43;2.75;;;;;;;;;;5070247;28;20041;-75
2022/07/28 03:41:12;;;;;;;6.22;2.25;;;;;;;;;;5060864;28;20186;-74
2022/07/28 03:43:38;;;;;;;5.30;2.17;;;;;;;;;;5074395;28;20075;-73
2022/07/28 03:46:04;;;;;;;5.60;2.70;;;;;;;;;;5074558;28;20049;-74
2022/07/28 03:48:31;;;;;;;7.60;2.40;;;;;;;;;;5064907;28;20167;-74
2022/07/28 03:50:57;;;;;;;7.53;2.63;;;;;;;;;;5075207;28;20128;-73
2022/07/28 03:53:25;;;;;;;5.25;2.33;;;;;;;;;;5076069;28;20115;-74
2022/07/28 03:55:51;;;;;;;7.07;2.47;;;;;;;;;;5072907;28;20123;-74
2022/07/28 03:58:18;;;;;;;6.70;2.40;;;;;;;;;;5072286;28;20502;-74
2022/07/28 04:00:44;;;;;;;4.97;2.42;;;;;;;;;;5070408;28;20040;-75
2022/07/28 04:03:10;;;;;;;6.20;2.63;;;;;;;;;;5073424;28;20097;-74
2022/07/28 04:05:36;;;;;;;7.20;2.63;;;;;;;;;;5075822;28;20119;-74
2022/07/28 04:08:02;;;;;;;7.38;2.70;;;;;;;;;;5062224;28;20076;-74
2022/07/28 04:10:28;;;;;;;7.45;3.30;;;;;;;;;;5075180;28;20088;-74
2022/07/28 04:12:54;;;;;;;4.95;2.70;;;;;;;;;;5074007;28;20050;-74
2022/07/28 04:15:21;;;;;;;6.25;3.00;;;;;;;;;;5071258;28;20044;-74
2022/07/28 04:17:48;;;;;;;4.72;2.65;;;;;;;;;;5073288;28;20052;-75
2022/07/28 04:20:15;;;;;;;6.25;2.78;;;;;;;;;;5072545;28;20058;-74
2022/07/28 04:22:41;;;;;;;5.28;2.00;;;;;;;;;;5076415;28;20082;-74
2022/07/28 04:25:07;;;;;;;9.60;1.83;;;;;;;;;;5075251;28;20131;-75
2022/07/28 04:27:37;;;;;;;4.18;1.88;;;;;;;;;;5075006;28;20052;-74
2022/07/28 04:30:04;;;;;;;5.50;2.38;;;;;;;;;;5061914;28;20045;-75
2022/07/28 04:32:30;;;;;;;8.18;2.40;;;;;;;;;;5065667;28;20509;-74
2022/07/28 04:34:56;;;;;;;8.30;3.30;;;;;;;;;;5074971;28;20128;-74
2022/07/28 04:37:22;;;;;;;6.55;3.00;;;;;;;;;;5074217;28;20174;-74
2022/07/28 04:39:49;;;;;;;6.28;2.63;;;;;;;;;;5074680;28;20490;-74
2022/07/28 04:42:17;;;;;;;6.22;2.60;;;;;;;;;;5064312;28;20165;-74
2022/07/28 04:44:44;;;;;;;5.00;2.30;;;;;;;;;;5074343;28;20044;-74
2022/07/28 04:47:11;;;;;;;4.93;2.28;;;;;;;;;;5066517;28;20051;-74
2022/07/28 04:49:38;;;;;;;6.10;2.17;;;;;;;;;;5075173;28;20048;-74
2022/07/28 04:52:04;;;;;;;5.32;2.28;;;;;;;;;;5072407;28;20132;-74
2022/07/28 04:54:30;;;;;;;4.72;2.20;;;;;;;;;;5074771;28;20553;-74
2022/07/28 04:56:56;;;;;;;5.47;1.67;;;;;;;;;;5074650;28;20044;-74
2022/07/28 04:59:22;;;;;;;4.60;1.75;;;;;;;;;;5073494;28;20052;-76
2022/07/28 05:01:48;;;;;;;5.78;2.63;;;;;;;;;;5072344;28;20090;-75
2022/07/28 05:04:14;;;;;;;4.50;2.05;;;;;;;;;;5073148;28;20057;-75
2022/07/28 05:06:41;;;;;;;5.72;1.85;;;;;;;;;;5071011;28;20048;-74
2022/07/28 05:09:07;;;;;;;3.95;1.88;;;;;;;;;;5074883;28;20040;-75
2022/07/28 05:11:33;;;;;;;4.28;1.98;;;;;;;;;;5071902;28;20093;-75
2022/07/28 05:13:59;;;;;;;4.40;1.92;;;;;;;;;;5073184;28;20124;-74
2022/07/28 05:16:25;;;;;;;7.22;2.38;;;;;;;;;;5072149;28;20048;-74
2022/07/28 05:18:51;;;;;;;8.63;2.30;;;;;;;;;;5072463;28;20037;-75
2022/07/28 05:21:20;;;;;;;4.57;2.20;;;;;;;;;;5074960;28;20037;-74
2022/07/28 05:23:46;;;;;;;8.23;2.53;;;;;;;;;;5067444;28;20068;-75
2022/07/28 05:26:13;;;;;;;10.48;2.70;;;;;;;;;;5069682;28;20037;-73
2022/07/28 05:28:39;;;;;;;6.10;3.15;;;;;;;;;;5074151;28;20410;-75
2022/07/28 05:31:06;;;;;;;7.30;3.53;;;;;;;;;;5074803;28;20044;-75
2022/07/28 05:33:32;;;;;;;9.70;3.13;;;;;;;;;;5069968;28;20154;-74
2022/07/28 05:35:59;;;;;;;10.65;3.70;;;;;;;;;;5074623;28;20059;-74
2022/07/28 05:38:25;;;;;;;10.00;3.67;;;;;;;;;;5070870;28;20044;-74
2022/07/28 05:40:52;;;;;;;7.88;3.90;;;;;;;;;;5072620;28;20064;-73
2022/07/28 05:43:18;;;;;;;13.50;3.80;;;;;;;;;;5075052;28;20043;-74
2022/07/28 05:45:45;;;;;;;8.75;3.60;;;;;;;;;;5073326;28;20063;-74
2022/07/28 05:48:11;;;;;;;11.90;3.78;;;;;;;;;;5064698;28;20045;-74
2022/07/28 05:50:37;;;;;;;9.43;3.50;;;;;;;;;;5073168;28;20410;-74
2022/07/28 05:53:03;;;;;;;8.60;3.25;;;;;;;;;;5053609;28;20049;-73
2022/07/28 05:55:29;;;;;;;6.93;2.88;;;;;;;;;;5072879;28;20052;-73
2022/07/28 05:57:55;;;;;;;6.85;3.33;;;;;;;;;;5072408;28;20041;-75
2022/07/28 06:00:22;;;;;;;5.75;3.03;;;;;;;;;;5071959;28;20068;-74
2022/07/28 06:02:49;;;;;;;9.32;3.00;;;;;;;;;;5074145;28;20119;-74
2022/07/28 06:05:18;;;;;;;6.72;2.65;;;;;;;;;;5069601;28;20040;-74
2022/07/28 06:07:45;;;;;;;6.68;2.53;;;;;;;;;;5073252;28;20509;-74
2022/07/28 06:10:12;;;;;;;7.18;2.35;;;;;;;;;;5069837;28;20045;-74
2022/07/28 06:12:41;;;;;;;5.63;2.03;;;;;;;;;;5069312;28;20071;-73
2022/07/28 06:15:11;;;;;;;8.57;1.95;;;;;;;;;;5068021;28;20127;-74
2022/07/28 06:17:37;;;;;;;7.20;2.25;;;;;;;;;;5071441;28;20498;-74
2022/07/28 06:20:03;;;;;;;12.18;1.95;;;;;;;;;;5073900;28;20051;-74
2022/07/28 06:22:29;;;;;;;6.75;2.00;;;;;;;;;;5073845;28;20132;-73
2022/07/28 06:24:55;;;;;;;8.68;2.03;;;;;;;;;;5074029;28;20080;-74
2022/07/28 06:27:21;;;;;;;7.72;2.25;;;;;;;;;;5071488;28;20049;-74
2022/07/28 06:29:47;;;;;;;7.05;2.22;;;;;;;;;;5073523;28;20102;-74
2022/07/28 06:32:15;;;;;;;7.30;2.05;;;;;;;;;;5078697;28;20404;-74
2022/07/28 06:34:41;;;;;;;5.40;1.90;;;;;;;;;;5076967;28;20045;-75
2022/07/28 06:37:07;;;;;;;5.75;1.95;;;;;;;;;;5067293;28;20090;-74
2022/07/28 06:39:33;;;;;;;6.13;1.80;;;;;;;;;;5074348;28;20044;-74
2022/07/28 06:41:59;;;;;;;6.10;1.63;;;;;;;;;;5073449;28;20549;-74
2022/07/28 06:44:25;;;;;;;6.38;1.65;;;;;;;;;;5073935;28;20044;-74
2022/07/28 06:46:52;;;;;;;6.93;1.95;;;;;;;;;;5073051;28;20402;-74
2022/07/28 06:49:18;;;;;;;9.05;1.80;;;;;;;;;;5075880;28;20047;-74
2022/07/28 06:51:44;;;;;;;8.15;1.80;;;;;;;;;;5072144;28;20052;-74
2022/07/28 06:54:11;;;;;;;6.13;2.00;;;;;;;;;;5072620;28;20888;-74
2022/07/28 06:56:37;;;;;;;5.60;1.73;;;;;;;;;;5073769;28;20041;-74
2022/07/28 06:59:03;;;;;;;5.28;1.63;;;;;;;;;;5073451;28;20102;-74
2022/07/28 07:01:29;;;;;;;8.43;1.83;;;;;;;;;;5073701;28;20044;-75
2022/07/28 07:03:55;;;;;;;4.85;1.55;;;;;;;;;;5058289;28;20048;-74
2022/07/28 07:06:21;;;;;;;8.05;1.52;;;;;;;;;;5072333;28;20039;-75
2022/07/28 07:08:47;;;;;;;5.05;1.63;;;;;;;;;;5072898;28;20123;-75
2022/07/28 07:11:13;;;;;;;6.30;1.48;;;;;;;;;;5070965;28;20048;-75
2022/07/28 07:13:39;;;;;;;6.32;1.40;;;;;;;;;;5071809;28;20095;-74
2022/07/28 07:16:05;;;;;;;4.85;1.40;;;;;;;;;;5071885;28;20394;-74
2022/07/28 07:18:31;;;;;;;7.20;1.50;;;;;;;;;;5074359;28;20391;-74
2022/07/28 07:20:57;;;;;;;5.35;1.25;;;;;;;;;;5075695;28;20479;-74
2022/07/28 07:23:23;;;;;;;5.85;1.77;;;;;;;;;;5076106;28;20045;-74
2022/07/28 07:25:49;;;;;;;6.15;1.27;;;;;;;;;;5061002;28;20108;-74
2022/07/28 07:28:15;;;;;;;5.75;1.20;;;;;;;;;;5056821;28;20495;-75
2022/07/28 07:30:41;;;;;;;5.47;0.98;;;;;;;;;;5076051;28;20402;-73
2022/07/28 07:33:07;;;;;;;6.18;1.23;;;;;;;;;;5076159;28;20053;-75
2022/07/28 07:35:33;;;;;;;5.30;1.30;;;;;;;;;;5074569;28;20052;-73
2022/07/28 07:38:00;;;;;;;3.53;1.00;;;;;;;;;;5076808;28;20045;-76
2022/07/28 07:40:26;;;;;;;5.00;1.50;;;;;;;;;;5075240;28;20048;-73
2022/07/28 07:42:52;;;;;;;5.78;1.20;;;;;;;;;;5075431;28;20048;-75
2022/07/28 07:45:18;;;;;;;4.55;1.15;;;;;;;;;;5075114;28;20052;-74
2022/07/28 07:47:44;;;;;;;5.15;1.38;;;;;;;;;;5077020;28;20052;-73
2022/07/28 07:50:10;;;;;;;7.30;1.50;;;;;;;;;;5075437;28;20101;-75
2022/07/28 07:52:36;;;;;;;6.93;1.60;;;;;;;;;;5073574;28;20052;-74
2022/07/28 07:55:03;;;;;;;6.10;1.50;;;;;;;;;;5074775;28;20055;-75
2022/07/28 07:57:29;;;;;;;4.85;1.05;;;;;;;;;;5076383;28;20090;-74
2022/07/28 07:59:55;;;;;;;3.65;1.20;;;;;;;;;;5076213;28;20171;-74
2022/07/28 08:02:21;;;;;;;4.90;1.20;;;;;;;;;;5074284;28;20137;-74
2022/07/28 08:04:47;;;;;;;4.93;1.23;;;;;;;;;;5076505;28;20498;-74
2022/07/28 08:07:13;;;;;;;3.42;0.90;;;;;;;;;;5075909;28;20044;-75
2022/07/28 08:09:39;;;;;;;4.60;1.15;;;;;;;;;;5074615;28;20036;-75
2022/07/28 08:12:05;;;;;;;3.58;0.93;;;;;;;;;;5072354;28;20045;-74
2022/07/28 08:14:31;;;;;;;3.42;0.90;;;;;;;;;;5076280;28;20051;-76
2022/07/28 08:16:58;;;;;;;5.60;1.00;;;;;;;;;;5072359;28;20040;-76
2022/07/28 08:19:24;;;;;;;4.47;1.08;;;;;;;;;;5076156;28;20048;-74
2022/07/28 08:21:51;;;;;;;5.78;0.90;;;;;;;;;;5075122;28;20037;-75
2022/07/28 08:24:20;;;;;;;3.50;0.70;;;;;;;;;;5074880;28;20131;-75
2022/07/28 08:26:46;;;;;;;3.67;0.90;;;;;;;;;;5074143;28;20100;-74
2022/07/28 08:29:12;;;;;;;5.35;1.02;;;;;;;;;;5074966;28;20045;-74
2022/07/28 08:31:38;;;;;;;4.38;0.90;;;;;;;;;;5057509;28;20071;-75
2022/07/28 08:34:04;;;;;;;3.33;0.90;;;;;;;;;;5074114;28;20051;-74
2022/07/28 08:36:31;;;;;;;5.13;1.25;;;;;;;;;;5072423;28;20053;-74
2022/07/28 08:38:57;;;;;;;7.97;1.02;;;;;;;;;;5075294;28;20044;-73
2022/07/28 08:41:29;;;;;;;5.43;0.90;;;;;;;;;;5073002;28;20044;-73
2022/07/28 08:43:56;;;;;;;4.93;1.02;;;;;;;;;;5075535;28;20048;-74
2022/07/28 08:46:22;;;;;;;4.07;0.80;;;;;;;;;;5075076;28;20045;-73
2022/07/28 08:48:48;;;;;;;3.38;0.85;;;;;;;;;;5075731;28;20457;-74
2022/07/28 08:51:15;;;;;;;4.43;0.85;;;;;;;;;;5075240;28;20076;-74
2022/07/28 08:53:42;;;;;;;3.95;0.80;;;;;;;;;;5074530;28;20102;-73
2022/07/28 08:56:11;;;;;;;3.92;0.90;;;;;;;;;;5073403;28;20546;-75
2022/07/28 08:58:38;;;;;;;4.75;1.05;;;;;;;;;;5075537;28;20048;-74
2022/07/28 09:01:06;;;;;;;4.68;0.82;;;;;;;;;;5074462;28;20082;-73
2022/07/28 09:03:32;;;;;;;4.22;1.17;;;;;;;;;;5063524;28;20056;-75
2022/07/28 09:05:58;;;;;;;4.13;1.02;;;;;;;;;;5074431;28;20044;-74
2022/07/28 09:08:25;;;;;;;5.20;1.05;;;;;;;;;;5073982;28;20090;-73
2022/07/28 09:10:51;;;;;;;3.95;0.98;;;;;;;;;;5074172;28;20162;-75
2022/07/28 09:13:18;;;;;;;5.80;0.93;;;;;;;;;;5074413;28;20410;-74
2022/07/28 09:15:45;;;;;;;4.70;1.10;;;;;;;;;;5074417;28;20041;-73
2022/07/28 09:18:12;;;;;;;9.88;1.25;;;;;;;;;;5073685;28;20040;-74
2022/07/28 09:20:39;;;;;;;5.35;0.93;;;;;;;;;;5074118;28;20090;-74
2022/07/28 09:23:05;;;;;;;5.65;0.90;;;;;;;;;;5071719;28;20076;-73
2022/07/28 09:25:32;;;;;;;5.40;1.10;;;;;;;;;;5073086;28;20471;-74
2022/07/28 09:28:10;;;;;;;5.07;1.00;;;;;;;;;;5073707;28;20044;-73
2022/07/28 09:30:39;;;;;;;5.40;1.20;;;;;;;;;;5072588;28;20401;-73
2022/07/28 09:33:11;;;;;;;5.32;0.90;;;;;;;;;;5054367;28;20106;-73
2022/07/28 09:35:44;;;;;;;5.00;0.90;;;;;;;;;;5066579;28;20076;-73
2022/07/28 09:38:10;;;;;;;4.10;0.90;;;;;;;;;;5068497;28;20063;-74
2022/07/28 09:40:36;;;;;;;4.88;0.85;;;;;;;;;;5071051;28;20040;-73
2022/07/28 09:43:02;;;;;;;5.45;0.90;;;;;;;;;;5072564;28;20048;-74
2022/07/28 09:45:28;;;;;;;5.20;0.98;;;;;;;;;;5074081;28;20049;-73
2022/07/28 09:48:13;;;;;;;6.45;1.10;;;;;;;;;;5073275;28;20405;-73
2022/07/28 09:50:43;;;;;;;3.53;0.90;;;;;;;;;;5053760;28;20049;-73
2022/07/28 09:53:25;;;;;;;5.55;0.93;;;;;;;;;;5069924;28;20055;-73
2022/07/28 09:55:56;;;;;;;7.05;0.90;;;;;;;;;;5073794;28;20047;-74
2022/07/28 09:58:22;;;;;;;5.22;1.00;;;;;;;;;;5073409;28;20047;-72
2022/07/28 10:00:48;;;;;;;6.75;1.13;;;;;;;;;;5072471;28;20131;-74
2022/07/28 10:03:24;;;;;;;8.02;1.17;;;;;;;;;;5073442;28;20546;-74
2022/07/28 10:05:50;;;;;;;7.28;1.20;;;;;;;;;;5071741;28;20079;-73
2022/07/28 10:08:16;;;;;;;3.88;0.80;;;;;;;;;;5073443;28;20045;-74
2022/07/28 10:10:42;;;;;;;5.65;0.95;;;;;;;;;;5070542;28;20041;-73
2022/07/28 10:13:08;;;;;;;4.00;1.00;;;;;;;;;;5070757;28;20040;-73
2022/07/28 10:18:19;;;;;;;4.38;0.98;;;;;;;;;;5068377;28;20052;-74
2022/07/28 10:20:45;;;;;;;5.00;1.05;;;;;;;;;;5068833;28;20097;-73
2022/07/28 10:23:12;;;;;;;3.15;0.80;;;;;;;;;;5070682;28;20032;-73
2022/07/28 10:25:39;;;;;;;3.25;0.90;;;;;;;;;;5064139;28;20052;-73
2022/07/28 10:28:06;;;;;;;4.53;1.02;;;;;;;;;;5063679;28;20406;-74
2022/07/28 10:30:37;;;;;;;7.20;1.23;;;;;;;;;;5065383;28;20040;-73
2022/07/28 10:33:08;;;;;;;3.03;0.82;;;;;;;;;;5066411;28;20036;-74
2022/07/28 10:35:34;;;;;;;4.40;0.80;;;;;;;;;;5071479;28;20123;-73
2022/07/28 10:38:05;;;;;;;5.93;1.00;;;;;;;;;;5071573;28;20037;-74
2022/07/28 10:40:35;;;;;;;4.15;1.00;;;;;;;;;;5071050;28;20102;-74
2022/07/28 10:43:02;;;;;;;9.52;1.23;;;;;;;;;;5073228;28;20048;-74
2022/07/28 10:45:28;;;;;;;2.45;0.88;;;;;;;;;;5070853;28;20574;-74
2022/07/28 10:47:54;;;;;;;2.90;0.90;;;;;;;;;;5072883;28;20041;-73
2022/07/28 10:50:21;;;;;;;3.55;1.00;;;;;;;;;;5072556;28;20093;-74
2022/07/28 10:52:47;;;;;;;6.03;1.42;;;;;;;;;;5072806;28;20082;-73
2022/07/28 10:55:20;;;;;;;5.78;1.27;;;;;;;;;;5071935;28;20391;-73
2022/07/28 10:58:04;;;;;;;5.85;1.00;;;;;;;;;;5073718;28;20048;-75
2022/07/28 11:00:32;;;;;;;4.57;1.02;;;;;;;;;;5070587;28;20040;-74
2022/07/28 11:03:00;;;;;;;4.40;0.90;;;;;;;;;;5070984;28;20040;-74
2022/07/28 11:05:33;;;;;;;5.32;1.20;;;;;;;;;;5063748;28;20058;-74
2022/07/28 11:08:26;;;;;;;4.93;1.02;;;;;;;;;;5071743;28;20083;-73
2022/07/28 11:10:52;;;;;;;7.78;1.10;;;;;;;;;;5066677;28;20067;-74
2022/07/28 11:13:24;;;;;;;5.38;1.00;;;;;;;;;;5070561;28;20048;-74
2022/07/28 11:15:50;;;;;;;5.45;1.15;;;;;;;;;;5071900;28;20115;-75
2022/07/28 11:18:17;;;;;;;6.82;1.92;;;;;;;;;;5072616;28;20098;-74
2022/07/28 11:20:52;;;;;;;6.03;1.60;;;;;;;;;;5073444;28;20076;-74
2022/07/28 11:23:37;;;;;;;7.18;1.20;;;;;;;;;;5065475;28;20037;-74
2022/07/28 11:26:24;;;;;;;4.10;0.98;;;;;;;;;;5072476;28;20044;-73
2022/07/28 11:28:59;;;;;;;4.53;1.15;;;;;;;;;;5073415;28;20127;-75
2022/07/28 11:31:43;;;;;;;4.82;1.00;;;;;;;;;;5072411;28;20170;-75
2022/07/28 11:34:10;;;;;;;4.85;1.02;;;;;;;;;;5072740;28;20486;-73
2022/07/28 11:36:58;;;;;;;6.80;1.80;;;;;;;;;;5071096;28;20075;-75
2022/07/28 11:39:25;;;;;;;5.95;1.20;;;;;;;;;;5063523;28;20398;-72
2022/07/28 11:41:51;;;;;;;4.97;1.10;;;;;;;;;;5070654;28;20043;-74
2022/07/28 11:44:24;;;;;;;4.25;1.13;;;;;;;;;;5069879;28;20441;-74
2022/07/28 11:46:51;;;;;;;3.80;1.13;;;;;;;;;;5052432;28;20041;-75
2022/07/28 11:49:19;;;;;;;6.22;1.80;;;;;;;;;;5063539;28;20043;-75
2022/07/28 11:52:04;;;;;;;4.72;1.10;;;;;;;;;;5071828;28;20052;-75
2022/07/28 11:54:31;;;;;;;6.85;3.40;;;;;;;;;;5070995;28;20056;-74
2022/07/28 11:56:58;;;;;;;7.03;1.42;;;;;;;;;;5091135;28;20554;-75
2022/07/28 11:59:24;;;;;;;6.05;1.42;;;;;;;;;;5076126;28;20548;-75
2022/07/28 12:01:55;;;;;;;4.47;1.13;;;;;;;;;;5070024;28;20044;-75
2022/07/28 12:04:21;;;;;;;;;;;;;;;;;;5070684;28;20052;-76
2022/07/28 12:06:50;;;;;;;4.18;0.90;;;;;;;;;;5075386;28;19920;-76
2022/07/28 12:09:16;;;;;;;4.40;0.82;;;;;;;;;;5075132;28;20049;-75
2022/07/28 12:11:44;;;;;;;4.88;1.10;;;;;;;;;;5073793;28;20049;-74
2022/07/28 12:14:11;;;;;;;5.30;0.90;;;;;;;;;;5068980;28;20070;-73
2022/07/28 12:16:38;;;;;;;3.85;0.85;;;;;;;;;;5069298;28;20119;-74
2022/07/28 12:19:05;;;;;;;5.00;1.00;;;;;;;;;;5071152;28;20040;-74
2022/07/28 12:21:37;;;;;;;4.32;0.95;;;;;;;;;;5074111;28;20129;-75
2022/07/28 12:24:04;;;;;;;5.15;0.93;;;;;;;;;;5075767;28;20135;-74
2022/07/28 12:26:33;;;;;;;4.43;0.90;;;;;;;;;;5072245;28;20040;-74
2022/07/28 12:28:59;;;;;;;13.82;2.75;;;;;;;;;;5071822;28;20048;-68
2022/07/28 12:31:29;;;;;;;12.68;2.35;;;;;;;;;;5071028;28;20037;-70
2022/07/28 12:33:58;;;;;;;5.63;1.70;;;;;;;;;;5070680;28;20045;-68
2022/07/28 12:36:24;;;;;;;6.13;2.03;;;;;;;;;;5074745;28;20445;-70
2022/07/28 12:38:51;;;;;;;6.32;2.03;;;;;;;;;;5073887;28;20067;-72
2022/07/28 12:41:17;;;;;;;7.60;1.23;;;;;;;;;;5074253;28;20503;-69
2022/07/28 12:43:50;;;;;;;7.78;1.13;;;;;;;;;;5069253;28;20398;-67
2022/07/28 12:46:23;;;;;;;6.38;1.10;;;;;;;;;;5062851;28;20049;-70
2022/07/28 12:48:49;;;;;;;3.67;0.85;;;;;;;;;;5074644;28;20094;-69
2022/07/28 12:51:34;;;;;;;6.10;0.90;;;;;;;;;;5074814;28;20044;-68
2022/07/28 12:54:01;;;;;;;3.72;0.93;;;;;;;;;;5064711;28;20045;-70
2022/07/28 12:56:27;;;;;;;4.03;0.80;;;;;;;;;;5071570;28;20055;-73
2022/07/28 12:59:06;;;;;;;6.30;1.00;;;;;;;;;;5074634;28;20036;-69
2022/07/28 13:01:51;;;;;;;3.20;0.90;;;;;;;;;;5074932;28;20055;-68
2022/07/28 13:04:36;;;;;;;4.22;0.93;;;;;;;;;;5074874;28;20040;-68
2022/07/28 13:07:08;;;;;;;3.55;0.80;;;;;;;;;;5071644;28;20102;-70
2022/07/28 13:09:34;;;;;;;3.30;0.93;;;;;;;;;;5069201;28;20063;-69
2022/07/28 13:12:00;;;;;;;5.55;0.88;;;;;;;;;;5070964;28;20040;-70
2022/07/28 13:14:43;;;;;;;3.78;1.10;;;;;;;;;;5070336;28;20037;-68
2022/07/28 13:17:09;;;;;;;7.40;2.00;;;;;;;;;;5073953;28;20516;-69
2022/07/28 13:19:35;;;;;;;5.95;0.90;;;;;;;;;;5073446;28;20119;-67
2022/07/28 13:22:01;;;;;;;5.00;1.00;;;;;;;;;;5084949;28;20123;-67
2022/07/28 13:24:28;;;;;;;6.07;0.95;;;;;;;;;;5074403;28;20063;-69
2022/07/28 13:26:55;;;;;;;5.53;1.25;;;;;;;;;;5071544;28;20084;-68
2022/07/28 13:29:21;;;;;;;2.75;0.80;;;;;;;;;;5051799;28;20063;-68
2022/07/28 13:31:47;;;;;;;4.53;0.98;;;;;;;;;;5070755;28;20064;-67
2022/07/28 13:34:13;;;;;;;4.90;1.00;;;;;;;;;;5072786;28;20048;-68
2022/07/28 13:36:40;;;;;;;4.63;0.85;;;;;;;;;;5071361;28;20044;-69
2022/07/28 13:39:06;;;;;;;7.70;0.95;;;;;;;;;;5071660;28;20041;-68
2022/07/28 13:41:32;;;;;;;5.05;1.00;;;;;;;;;;5070020;28;20546;-70
2022/07/28 13:43:58;;;;;;;4.97;1.00;;;;;;;;;;5070050;28;20044;-72
2022/07/28 13:46:25;;;;;;;8.75;1.67;;;;;;;;;;5070136;28;20090;-71
2022/07/28 13:48:52;;;;;;;16.70;1.80;;;;;;;;;;5072855;28;20044;-72
2022/07/28 13:51:18;;;;;;;12.18;1.10;;;;;;;;;;5072626;28;20397;-73
2022/07/28 13:53:45;;;;;;;126.32;8.52;;;;;;;;;;5070002;28;20052;-71
2022/07/28 13:56:11;;;;;;;13.05;1.60;;;;;;;;;;5069141;28;20033;-72
2022/07/28 13:58:37;;;;;;;24.13;2.58;;;;;;;;;;5071019;28;20040;-72
2022/07/28 14:01:04;;;;;;;8.27;1.50;;;;;;;;;;5072347;28;20040;-72
2022/07/28 14:03:31;;;;;;;98.70;7.68;;;;;;;;;;5068603;28;20076;-72
2022/07/28 14:05:57;;;;;;;23.33;2.95;;;;;;;;;;5056817;28;20052;-72
2022/07/28 14:08:24;;;;;;;59.42;4.57;;;;;;;;;;5067329;28;20045;-72
2022/07/28 14:10:52;;;;;;;16.52;2.58;;;;;;;;;;5070232;28;20047;-72
2022/07/28 14:13:19;;;;;;;5.47;1.00;;;;;;;;;;5075257;28;20056;-76
2022/07/28 14:15:45;;;;;;;10.60;1.67;;;;;;;;;;5058606;28;20048;-76
2022/07/28 14:18:11;;;;;;;13.48;1.38;;;;;;;;;;5074410;28;20037;-74
2022/07/28 14:20:37;;;;;;;4.28;1.10;;;;;;;;;;5071457;28;20402;-75
2022/07/28 14:23:04;;;;;;;9.65;1.27;;;;;;;;;;5055709;28;20105;-73
2022/07/28 14:25:30;;;;;;;5.68;1.10;;;;;;;;;;5069546;28;20132;-73
2022/07/28 14:27:56;;;;;;;5.95;1.00;;;;;;;;;;5073650;28;20050;-75
2022/07/28 14:30:26;;;;;;;7.07;1.20;;;;;;;;;;5070734;28;20552;-73
2022/07/28 14:32:52;;;;;;;5.95;1.08;;;;;;;;;;5058762;28;20067;-72
2022/07/28 14:35:18;;;;;;;4.45;1.00;;;;;;;;;;5073425;28;20059;-73
2022/07/28 14:37:45;;;;;;;5.82;0.98;;;;;;;;;;5073080;28;20075;-74
2022/07/28 14:40:12;;;;;;;3.58;1.00;;;;;;;;;;5076705;28;20036;-74
2022/07/28 14:42:38;;;;;;;5.05;1.10;;;;;;;;;;5076389;28;20093;-74
2022/07/28 14:45:04;;;;;;;5.30;0.90;;;;;;;;;;5072218;28;20067;-73
2022/07/28 14:47:31;;;;;;;4.72;0.95;;;;;;;;;;5073201;28;20123;-73
2022/07/28 14:49:57;;;;;;;5.70;1.30;;;;;;;;;;5055354;28;20413;-73